sensor_id;sensor_type;location;lat;lon;timestamp;pressure;altitude;pressure_sealevel;temperature;humidity
62600;BME280;48671;48.922;2.346;2023-02-13T00:01:49;103247.88;;;7.09;65.86
62600;BME280;48671;48.922;2.346;2023-02-13T00:04:15;103258.34;;;7.14;65.81
62600;BME280;48671;48.922;2.346;2023-02-13T00:06:40;103258.25;;;7.08;65.71
62600;BME280;48671;48.922;2.346;2023-02-13T00:09:06;103276.41;;;7.11;66.11
62600;BME280;48671;48.922;2.346;2023-02-13T00:11:35;103248.47;;;6.93;65.78
62600;BME280;48671;48.922;2.346;2023-02-13T00:14:00;103262.44;;;7.01;65.75
62600;BME280;48671;48.922;2.346;2023-02-13T00:16:25;103278.09;;;7.07;65.78
62600;BME280;48671;48.922;2.346;2023-02-13T00:18:51;103279.81;;;7.07;65.97
62600;BME280;48671;48.922;2.346;2023-02-13T00:21:16;103269.28;;;6.97;66.00
62600;BME280;48671;48.922;2.346;2023-02-13T00:23:41;103278.84;;;7.01;66.21
62600;BME280;48671;48.922;2.346;2023-02-13T00:26:12;103265.81;;;6.97;65.63
62600;BME280;48671;48.922;2.346;2023-02-13T00:28:38;103260.50;;;6.88;66.08
62600;BME280;48671;48.922;2.346;2023-02-13T00:31:12;103256.13;;;6.84;66.63
62600;BME280;48671;48.922;2.346;2023-02-13T00:33:38;103247.50;;;6.85;66.02
62600;BME280;48671;48.922;2.346;2023-02-13T00:36:09;103261.34;;;6.88;66.08
62600;BME280;48671;48.922;2.346;2023-02-13T00:38:36;103269.13;;;6.90;66.28
62600;BME280;48671;48.922;2.346;2023-02-13T00:41:02;103275.16;;;6.87;66.75
62600;BME280;48671;48.922;2.346;2023-02-13T00:43:27;103262.09;;;6.83;66.71
62600;BME280;48671;48.922;2.346;2023-02-13T00:45:53;103262.97;;;6.82;66.57
62600;BME280;48671;48.922;2.346;2023-02-13T00:48:18;103253.25;;;6.68;66.14
62600;BME280;48671;48.922;2.346;2023-02-13T00:50:45;103252.31;;;6.65;66.85
62600;BME280;48671;48.922;2.346;2023-02-13T00:53:11;103257.56;;;6.69;66.93
62600;BME280;48671;48.922;2.346;2023-02-13T00:55:36;103266.13;;;6.67;66.99
62600;BME280;48671;48.922;2.346;2023-02-13T00:58:02;103253.84;;;6.55;66.97
62600;BME280;48671;48.922;2.346;2023-02-13T01:00:27;103279.06;;;6.67;66.82
62600;BME280;48671;48.922;2.346;2023-02-13T01:02:52;103259.09;;;6.58;66.72
62600;BME280;48671;48.922;2.346;2023-02-13T01:05:18;103267.09;;;6.70;66.91
62600;BME280;48671;48.922;2.346;2023-02-13T01:07:43;103249.56;;;6.57;66.96
62600;BME280;48671;48.922;2.346;2023-02-13T01:10:09;103252.25;;;6.62;66.52
62600;BME280;48671;48.922;2.346;2023-02-13T01:12:35;103255.78;;;6.65;67.01
62600;BME280;48671;48.922;2.346;2023-02-13T01:15:00;103251.28;;;6.56;66.95
62600;BME280;48671;48.922;2.346;2023-02-13T01:17:25;103249.50;;;6.52;67.12
62600;BME280;48671;48.922;2.346;2023-02-13T01:19:51;103258.13;;;6.53;66.89
62600;BME280;48671;48.922;2.346;2023-02-13T01:22:16;103251.09;;;6.47;67.40
62600;BME280;48671;48.922;2.346;2023-02-13T01:24:41;103248.44;;;6.41;66.84
62600;BME280;48671;48.922;2.346;2023-02-13T01:27:07;103254.50;;;6.43;67.35
62600;BME280;48671;48.922;2.346;2023-02-13T01:29:32;103258.72;;;6.40;66.56
62600;BME280;48671;48.922;2.346;2023-02-13T01:31:57;103259.53;;;6.37;66.92
62600;BME280;48671;48.922;2.346;2023-02-13T01:34:23;103256.88;;;6.32;67.11
62600;BME280;48671;48.922;2.346;2023-02-13T01:36:48;103256.00;;;6.32;67.38
62600;BME280;48671;48.922;2.346;2023-02-13T01:39:14;103242.97;;;6.27;67.16
62600;BME280;48671;48.922;2.346;2023-02-13T01:41:39;103245.56;;;6.27;67.20
62600;BME280;48671;48.922;2.346;2023-02-13T01:47:09;103254.09;;;6.22;67.63
62600;BME280;48671;48.922;2.346;2023-02-13T01:49:36;103250.56;;;6.18;67.24
62600;BME280;48671;48.922;2.346;2023-02-13T01:52:02;103253.03;;;6.14;67.78
62600;BME280;48671;48.922;2.346;2023-02-13T01:54:29;103245.06;;;6.03;67.98
62600;BME280;48671;48.922;2.346;2023-02-13T01:57:23;103250.31;;;6.07;67.76
62600;BME280;48671;48.922;2.346;2023-02-13T01:59:56;103243.34;;;6.02;67.90
62600;BME280;48671;48.922;2.346;2023-02-13T02:02:22;103252.03;;;6.07;67.73
62600;BME280;48671;48.922;2.346;2023-02-13T02:04:48;103255.47;;;6.06;67.70
62600;BME280;48671;48.922;2.346;2023-02-13T02:07:23;103243.34;;;6.02;67.49
62600;BME280;48671;48.922;2.346;2023-02-13T02:09:52;103253.63;;;6.00;68.04
62600;BME280;48671;48.922;2.346;2023-02-13T02:12:33;103252.84;;;6.04;67.59
62600;BME280;48671;48.922;2.346;2023-02-13T02:15:00;103258.88;;;6.03;67.97
62600;BME280;48671;48.922;2.346;2023-02-13T02:17:27;103250.09;;;5.97;67.67
62600;BME280;48671;48.922;2.346;2023-02-13T02:28:49;103251.97;;;6.02;67.40
62600;BME280;48671;48.922;2.346;2023-02-13T02:32:01;103259.59;;;5.96;67.53
62600;BME280;48671;48.922;2.346;2023-02-13T02:40:07;103243.34;;;6.03;67.47
62600;BME280;48671;48.922;2.346;2023-02-13T02:42:55;103236.41;;;6.01;67.18
62600;BME280;48671;48.922;2.346;2023-02-13T02:45:27;103237.19;;;5.97;67.26
62600;BME280;48671;48.922;2.346;2023-02-13T02:47:58;103238.03;;;5.96;67.67
62600;BME280;48671;48.922;2.346;2023-02-13T02:53:32;103241.31;;;5.89;67.79
62600;BME280;48671;48.922;2.346;2023-02-13T02:58:54;103240.38;;;5.86;67.50
62600;BME280;48671;48.922;2.346;2023-02-13T03:01:40;103232.50;;;5.79;67.91
62600;BME280;48671;48.922;2.346;2023-02-13T03:04:34;103236.88;;;5.83;67.89
62600;BME280;48671;48.922;2.346;2023-02-13T03:07:20;103235.06;;;5.79;67.57
62600;BME280;48671;48.922;2.346;2023-02-13T03:09:55;103236.81;;;5.80;67.77
62600;BME280;48671;48.922;2.346;2023-02-13T03:15:50;103241.97;;;5.80;67.56
62600;BME280;48671;48.922;2.346;2023-02-13T03:18:40;103241.91;;;5.78;68.03
62600;BME280;48671;48.922;2.346;2023-02-13T03:24:29;103251.22;;;5.70;68.41
62600;BME280;48671;48.922;2.346;2023-02-13T03:27:06;103250.31;;;5.68;68.38
62600;BME280;48671;48.922;2.346;2023-02-13T03:30:04;103243.31;;;5.62;67.76
62600;BME280;48671;48.922;2.346;2023-02-13T03:32:44;103237.31;;;5.63;68.67
62600;BME280;48671;48.922;2.346;2023-02-13T03:41:17;103248.56;;;5.67;68.63
62600;BME280;48671;48.922;2.346;2023-02-13T03:43:59;103244.22;;;5.64;68.33
62600;BME280;48671;48.922;2.346;2023-02-13T03:46:32;103240.75;;;5.64;68.43
62600;BME280;48671;48.922;2.346;2023-02-13T03:49:02;103234.59;;;5.59;68.49
62600;BME280;48671;48.922;2.346;2023-02-13T03:56:46;103229.44;;;5.59;68.73
62600;BME280;48671;48.922;2.346;2023-02-13T03:59:34;103234.69;;;5.62;68.99
62600;BME280;48671;48.922;2.346;2023-02-13T04:02:16;103231.16;;;5.58;68.82
62600;BME280;48671;48.922;2.346;2023-02-13T04:05:21;103235.50;;;5.59;69.26
62600;BME280;48671;48.922;2.346;2023-02-13T04:07:49;103231.13;;;5.57;68.99
62600;BME280;48671;48.922;2.346;2023-02-13T04:10:16;103238.03;;;5.58;68.88
62600;BME280;48671;48.922;2.346;2023-02-13T04:15:40;103244.91;;;5.56;68.98
62600;BME280;48671;48.922;2.346;2023-02-13T04:18:14;103243.97;;;5.54;69.13
62600;BME280;48671;48.922;2.346;2023-02-13T04:20:42;103254.31;;;5.55;69.49
62600;BME280;48671;48.922;2.346;2023-02-13T04:23:09;103234.28;;;5.44;69.02
62600;BME280;48671;48.922;2.346;2023-02-13T04:25:36;103234.28;;;5.44;68.98
62600;BME280;48671;48.922;2.346;2023-02-13T04:28:03;103252.50;;;5.50;68.88
62600;BME280;48671;48.922;2.346;2023-02-13T04:30:28;103248.00;;;5.43;69.30
62600;BME280;48671;48.922;2.346;2023-02-13T04:32:53;103253.38;;;5.50;69.43
62600;BME280;48671;48.922;2.346;2023-02-13T04:35:19;103243.81;;;5.46;69.37
62600;BME280;48671;48.922;2.346;2023-02-13T04:37:44;103254.97;;;5.45;69.01
62600;BME280;48671;48.922;2.346;2023-02-13T04:40:10;103254.88;;;5.42;69.22
62600;BME280;48671;48.922;2.346;2023-02-13T04:42:35;103236.34;;;5.22;69.73
62600;BME280;48671;48.922;2.346;2023-02-13T04:45:00;103245.69;;;5.17;69.97
62600;BME280;48671;48.922;2.346;2023-02-13T04:47:26;103249.63;;;5.03;70.31
62600;BME280;48671;48.922;2.346;2023-02-13T04:49:51;103251.97;;;4.93;70.50
62600;BME280;48671;48.922;2.346;2023-02-13T04:52:17;103241.56;;;4.89;71.67
62600;BME280;48671;48.922;2.346;2023-02-13T04:54:42;103245.78;;;4.87;72.00
62600;BME280;48671;48.922;2.346;2023-02-13T04:57:08;103238.78;;;4.81;71.31
62600;BME280;48671;48.922;2.346;2023-02-13T04:59:33;103257.78;;;4.85;71.48
62600;BME280;48671;48.922;2.346;2023-02-13T05:01:59;103256.19;;;4.90;71.46
62600;BME280;48671;48.922;2.346;2023-02-13T05:04:24;103234.66;;;4.88;71.34
62600;BME280;48671;48.922;2.346;2023-02-13T05:06:50;103246.78;;;4.92;70.83
62600;BME280;48671;48.922;2.346;2023-02-13T05:09:15;103254.72;;;5.00;70.98
62600;BME280;48671;48.922;2.346;2023-02-13T05:11:41;103247.84;;;5.00;71.15
62600;BME280;48671;48.922;2.346;2023-02-13T05:14:06;103247.03;;;5.01;70.82
62600;BME280;48671;48.922;2.346;2023-02-13T05:16:32;103253.09;;;5.03;70.97
62600;BME280;48671;48.922;2.346;2023-02-13T05:18:57;103250.56;;;5.05;70.89
62600;BME280;48671;48.922;2.346;2023-02-13T05:21:22;103244.53;;;5.04;70.69
62600;BME280;48671;48.922;2.346;2023-02-13T05:24:06;103233.19;;;4.98;70.82
62600;BME280;48671;48.922;2.346;2023-02-13T05:26:32;103237.69;;;5.06;70.77
62600;BME280;48671;48.922;2.346;2023-02-13T05:28:57;103235.03;;;5.03;70.36
62600;BME280;48671;48.922;2.346;2023-02-13T05:31:41;103235.06;;;5.05;70.32
62600;BME280;48671;48.922;2.346;2023-02-13T05:34:06;103233.34;;;5.05;70.49
62600;BME280;48671;48.922;2.346;2023-02-13T05:36:31;103235.16;;;5.08;70.20
62600;BME280;48671;48.922;2.346;2023-02-13T05:38:57;103233.41;;;5.07;70.34
62600;BME280;48671;48.922;2.346;2023-02-13T05:41:22;103236.78;;;5.04;70.23
62600;BME280;48671;48.922;2.346;2023-02-13T05:43:47;103234.28;;;5.07;70.20
62600;BME280;48671;48.922;2.346;2023-02-13T05:46:13;103227.25;;;5.02;70.13
62600;BME280;48671;48.922;2.346;2023-02-13T05:48:38;103231.63;;;5.04;70.53
62600;BME280;48671;48.922;2.346;2023-02-13T05:51:04;103233.44;;;5.08;70.20
62600;BME280;48671;48.922;2.346;2023-02-13T05:53:29;103230.00;;;5.09;70.16
62600;BME280;48671;48.922;2.346;2023-02-13T05:55:55;103231.78;;;5.10;69.91
62600;BME280;48671;48.922;2.346;2023-02-13T05:58:20;103234.31;;;5.09;69.74
62600;BME280;48671;48.922;2.346;2023-02-13T06:00:46;103243.69;;;5.05;70.03
62600;BME280;48671;48.922;2.346;2023-02-13T06:03:12;103237.41;;;4.96;70.15
62600;BME280;48671;48.922;2.346;2023-02-13T06:05:37;103243.50;;;4.98;70.14
62600;BME280;48671;48.922;2.346;2023-02-13T06:08:03;103228.63;;;4.87;69.68
62600;BME280;48671;48.922;2.346;2023-02-13T06:10:28;103245.25;;;4.99;70.19
62600;BME280;48671;48.922;2.346;2023-02-13T06:12:53;103247.84;;;5.00;70.01
62600;BME280;48671;48.922;2.346;2023-02-13T06:15:19;103244.25;;;4.93;69.90
62600;BME280;48671;48.922;2.346;2023-02-13T06:17:44;103239.06;;;4.92;70.03
62600;BME280;48671;48.922;2.346;2023-02-13T06:20:10;103243.44;;;4.96;69.92
62600;BME280;48671;48.922;2.346;2023-02-13T06:22:35;103227.00;;;4.91;69.81
62600;BME280;48671;48.922;2.346;2023-02-13T06:25:01;103257.44;;;5.04;70.19
62600;BME280;48671;48.922;2.346;2023-02-13T06:27:26;103240.78;;;4.93;70.03
62600;BME280;48671;48.922;2.346;2023-02-13T06:29:52;103240.91;;;4.98;69.82
62600;BME280;48671;48.922;2.346;2023-02-13T06:32:17;103246.09;;;4.98;70.08
62600;BME280;48671;48.922;2.346;2023-02-13T06:34:42;103252.28;;;5.04;69.75
62600;BME280;48671;48.922;2.346;2023-02-13T06:37:08;103263.53;;;5.08;69.84
62600;BME280;48671;48.922;2.346;2023-02-13T06:39:33;103251.28;;;4.99;70.21
62600;BME280;48671;48.922;2.346;2023-02-13T06:41:58;103245.94;;;4.91;70.01
62600;BME280;48671;48.922;2.346;2023-02-13T06:44:24;103250.38;;;4.97;70.12
62600;BME280;48671;48.922;2.346;2023-02-13T06:46:49;103245.88;;;4.90;70.12
62600;BME280;48671;48.922;2.346;2023-02-13T06:49:15;103248.38;;;4.87;70.37
62600;BME280;48671;48.922;2.346;2023-02-13T06:51:40;103274.31;;;4.93;70.08
62600;BME280;48671;48.922;2.346;2023-02-13T06:54:06;103269.16;;;4.91;70.20
62600;BME280;48671;48.922;2.346;2023-02-13T06:56:31;103265.47;;;4.83;70.36
62600;BME280;48671;48.922;2.346;2023-02-13T06:58:57;103273.28;;;4.85;70.71
62600;BME280;48671;48.922;2.346;2023-02-13T07:01:22;103275.97;;;4.89;70.41
62600;BME280;48671;48.922;2.346;2023-02-13T07:03:47;103266.34;;;4.84;70.70
62600;BME280;48671;48.922;2.346;2023-02-13T07:06:20;103276.63;;;4.82;70.60
62600;BME280;48671;48.922;2.346;2023-02-13T07:08:45;103278.44;;;4.85;71.02
62600;BME280;48671;48.922;2.346;2023-02-13T07:11:18;103272.34;;;4.83;70.56
62600;BME280;48671;48.922;2.346;2023-02-13T07:13:44;103279.28;;;4.85;70.60
62600;BME280;48671;48.922;2.346;2023-02-13T07:16:09;103272.31;;;4.81;70.77
62600;BME280;48671;48.922;2.346;2023-02-13T07:18:34;103277.41;;;4.78;71.14
62600;BME280;48671;48.922;2.346;2023-02-13T07:21:00;103286.69;;;4.73;71.04
62600;BME280;48671;48.922;2.346;2023-02-13T07:23:25;103289.16;;;4.68;71.70
62600;BME280;48671;48.922;2.346;2023-02-13T07:25:50;103298.44;;;4.62;72.01
62600;BME280;48671;48.922;2.346;2023-02-13T07:28:16;103294.09;;;4.61;72.16
62600;BME280;48671;48.922;2.346;2023-02-13T07:30:41;103289.94;;;4.64;71.76
62600;BME280;48671;48.922;2.346;2023-02-13T07:33:08;103302.25;;;4.75;71.89
62600;BME280;48671;48.922;2.346;2023-02-13T07:35:33;103302.53;;;4.87;71.96
62600;BME280;48671;48.922;2.346;2023-02-13T07:38:00;103303.09;;;5.07;71.55
62600;BME280;48671;48.922;2.346;2023-02-13T07:40:25;103306.09;;;5.24;71.44
62600;BME280;48671;48.922;2.346;2023-02-13T07:42:51;103304.78;;;5.41;71.43
62600;BME280;48671;48.922;2.346;2023-02-13T07:45:16;103302.66;;;5.61;70.55
62600;BME280;48671;48.922;2.346;2023-02-13T07:47:42;103302.97;;;5.73;70.56
62600;BME280;48671;48.922;2.346;2023-02-13T07:50:08;103284.16;;;5.79;70.46
62600;BME280;48671;48.922;2.346;2023-02-13T07:52:34;103288.00;;;5.96;69.82
62600;BME280;48671;48.922;2.346;2023-02-13T07:55:02;103295.25;;;6.14;69.77
62600;BME280;48671;48.922;2.346;2023-02-13T07:57:27;103299.09;;;6.33;69.39
62600;BME280;48671;48.922;2.346;2023-02-13T07:59:53;103300.25;;;6.47;68.60
62600;BME280;48671;48.922;2.346;2023-02-13T08:02:18;103295.38;;;6.63;68.72
62600;BME280;48671;48.922;2.346;2023-02-13T08:04:43;103300.03;;;6.80;67.99
62600;BME280;48671;48.922;2.346;2023-02-13T08:07:13;103295.13;;;6.96;68.16
62600;BME280;48671;48.922;2.346;2023-02-13T08:09:39;103297.13;;;7.11;67.49
62600;BME280;48671;48.922;2.346;2023-02-13T08:12:23;103292.16;;;7.24;66.89
62600;BME280;48671;48.922;2.346;2023-02-13T08:14:48;103300.91;;;7.31;66.71
62600;BME280;48671;48.922;2.346;2023-02-13T08:17:13;103292.22;;;7.27;67.01
62600;BME280;48671;48.922;2.346;2023-02-13T08:19:39;103301.72;;;7.27;66.69
62600;BME280;48671;48.922;2.346;2023-02-13T08:22:04;103293.81;;;7.19;66.51
62600;BME280;48671;48.922;2.346;2023-02-13T08:24:29;103295.38;;;7.10;67.34
62600;BME280;48671;48.922;2.346;2023-02-13T08:26:56;103294.47;;;7.08;66.99
62600;BME280;48671;48.922;2.346;2023-02-13T08:29:21;103292.81;;;7.11;67.42
62600;BME280;48671;48.922;2.346;2023-02-13T08:31:46;103293.06;;;7.26;66.65
62600;BME280;48671;48.922;2.346;2023-02-13T08:34:12;103285.47;;;7.39;66.99
62600;BME280;48671;48.922;2.346;2023-02-13T08:36:37;103303.84;;;7.53;66.88
62600;BME280;48671;48.922;2.346;2023-02-13T08:39:03;103303.09;;;7.61;66.47
62600;BME280;48671;48.922;2.346;2023-02-13T08:41:28;103306.03;;;7.84;66.19
62600;BME280;48671;48.922;2.346;2023-02-13T08:43:53;103302.84;;;8.04;65.39
62600;BME280;48671;48.922;2.346;2023-02-13T08:46:19;103303.75;;;8.06;65.45
62600;BME280;48671;48.922;2.346;2023-02-13T08:48:45;103297.56;;;7.97;65.24
62600;BME280;48671;48.922;2.346;2023-02-13T08:51:12;103294.91;;;7.91;65.58
62600;BME280;48671;48.922;2.346;2023-02-13T08:53:38;103298.47;;;8.00;65.74
62600;BME280;48671;48.922;2.346;2023-02-13T08:56:04;103297.59;;;7.99;65.55
62600;BME280;48671;48.922;2.346;2023-02-13T08:58:30;103297.59;;;8.01;65.50
62600;BME280;48671;48.922;2.346;2023-02-13T09:00:56;103308.09;;;8.08;65.47
62600;BME280;48671;48.922;2.346;2023-02-13T09:03:21;103302.09;;;8.12;65.83
62600;BME280;48671;48.922;2.346;2023-02-13T09:05:47;103295.97;;;8.06;65.32
62600;BME280;48671;48.922;2.346;2023-02-13T09:08:12;103308.09;;;8.10;65.61
62600;BME280;48671;48.922;2.346;2023-02-13T09:10:39;103301.16;;;8.06;65.59
62600;BME280;48671;48.922;2.346;2023-02-13T09:13:04;103304.59;;;8.06;65.69
62600;BME280;48671;48.922;2.346;2023-02-13T09:15:30;103298.59;;;8.10;66.14
62600;BME280;48671;48.922;2.346;2023-02-13T09:17:56;103298.72;;;8.18;66.57
62600;BME280;48671;48.922;2.346;2023-02-13T09:20:22;103298.75;;;8.23;65.36
62600;BME280;48671;48.922;2.346;2023-02-13T09:22:47;103290.16;;;8.25;65.86
62600;BME280;48671;48.922;2.346;2023-02-13T09:25:12;103311.09;;;8.39;65.76
62600;BME280;48671;48.922;2.346;2023-02-13T09:27:38;103299.09;;;8.47;65.41
62600;BME280;48671;48.922;2.346;2023-02-13T09:30:08;103303.47;;;8.53;65.40
62600;BME280;48671;48.922;2.346;2023-02-13T09:32:36;103305.31;;;8.63;64.45
62600;BME280;48671;48.922;2.346;2023-02-13T09:35:03;103302.78;;;8.67;64.97
62600;BME280;48671;48.922;2.346;2023-02-13T09:37:30;103308.03;;;8.74;64.88
62600;BME280;48671;48.922;2.346;2023-02-13T09:39:56;103293.31;;;8.73;64.61
62600;BME280;48671;48.922;2.346;2023-02-13T09:42:27;103306.41;;;8.85;64.33
62600;BME280;48671;48.922;2.346;2023-02-13T09:44:58;103309.91;;;8.88;63.76
62600;BME280;48671;48.922;2.346;2023-02-13T09:52:32;103306.69;;;9.14;64.75
62600;BME280;48671;48.922;2.346;2023-02-13T09:54:59;103299.91;;;9.30;63.92
62600;BME280;48671;48.922;2.346;2023-02-13T09:57:41;103309.50;;;9.42;63.26
62600;BME280;48671;48.922;2.346;2023-02-13T10:00:19;103304.44;;;9.60;63.35
62600;BME280;48671;48.922;2.346;2023-02-13T10:03:28;103304.59;;;9.78;62.41
62600;BME280;48671;48.922;2.346;2023-02-13T10:06:07;103300.38;;;10.02;62.72
62600;BME280;48671;48.922;2.346;2023-02-13T10:08:58;103301.34;;;10.21;61.46
62600;BME280;48671;48.922;2.346;2023-02-13T10:14:16;103301.50;;;10.58;61.62
62600;BME280;48671;48.922;2.346;2023-02-13T10:16:44;103305.84;;;10.72;60.62
62600;BME280;48671;48.922;2.346;2023-02-13T10:22:00;103300.72;;;10.95;59.68
62600;BME280;48671;48.922;2.346;2023-02-13T10:25:05;103286.81;;;11.06;59.96
62600;BME280;48671;48.922;2.346;2023-02-13T10:27:39;103303.28;;;11.24;59.46
62600;BME280;48671;48.922;2.346;2023-02-13T10:30:20;103294.59;;;11.41;59.05
62600;BME280;48671;48.922;2.346;2023-02-13T10:35:47;103286.72;;;11.81;58.63
62600;BME280;48671;48.922;2.346;2023-02-13T10:38:19;103285.78;;;12.06;58.40
62600;BME280;48671;48.922;2.346;2023-02-13T10:58:05;103270.59;;;12.80;56.17
62600;BME280;48671;48.922;2.346;2023-02-13T11:00:55;103273.16;;;12.85;56.01
62600;BME280;48671;48.922;2.346;2023-02-13T11:03:27;103264.38;;;12.98;55.56
62600;BME280;48671;48.922;2.346;2023-02-13T11:05:54;103270.44;;;13.00;54.85
62600;BME280;48671;48.922;2.346;2023-02-13T11:08:25;103266.88;;;13.10;55.29
62600;BME280;48671;48.922;2.346;2023-02-13T11:10:51;103259.94;;;13.06;54.18
62600;BME280;48671;48.922;2.346;2023-02-13T11:13:25;103259.88;;;13.16;54.71
62600;BME280;48671;48.922;2.346;2023-02-13T11:15:59;103242.47;;;13.15;54.35
62600;BME280;48671;48.922;2.346;2023-02-13T11:18:28;103256.22;;;13.33;53.60
62600;BME280;48671;48.922;2.346;2023-02-13T11:21:02;103257.03;;;13.40;52.66
62600;BME280;48671;48.922;2.346;2023-02-13T11:26:06;103242.81;;;13.66;53.96
62600;BME280;48671;48.922;2.346;2023-02-13T11:29:01;103232.09;;;13.90;53.47
62600;BME280;48671;48.922;2.346;2023-02-13T11:31:33;103239.84;;;13.98;51.10
62600;BME280;48671;48.922;2.346;2023-02-13T11:34:17;103244.94;;;14.07;52.69
62600;BME280;48671;48.922;2.346;2023-02-13T11:37:13;103230.09;;;14.08;51.00
62600;BME280;48671;48.922;2.346;2023-02-13T11:39:40;103224.94;;;14.03;50.79
62600;BME280;48671;48.922;2.346;2023-02-13T11:45:20;103225.31;;;14.37;51.88
62600;BME280;48671;48.922;2.346;2023-02-13T11:47:46;103223.28;;;14.59;50.75
62600;BME280;48671;48.922;2.346;2023-02-13T11:52:53;103214.34;;;14.72;51.32
62600;BME280;48671;48.922;2.346;2023-02-13T11:55:25;103220.31;;;14.82;50.65
62600;BME280;48671;48.922;2.346;2023-02-13T12:02:57;103210.13;;;15.15;49.90
62600;BME280;48671;48.922;2.346;2023-02-13T12:05:25;103205.38;;;15.35;50.22
62600;BME280;48671;48.922;2.346;2023-02-13T12:07:54;103207.59;;;15.57;49.05
62600;BME280;48671;48.922;2.346;2023-02-13T12:10:24;103210.69;;;15.77;48.40
62600;BME280;48671;48.922;2.346;2023-02-13T12:13:13;103204.28;;;15.90;48.55
62600;BME280;48671;48.922;2.346;2023-02-13T12:15:40;103214.41;;;16.09;47.64
62600;BME280;48671;48.922;2.346;2023-02-13T12:21:10;103196.59;;;16.22;48.26
62600;BME280;48671;48.922;2.346;2023-02-13T12:23:56;103201.69;;;16.29;47.29
62600;BME280;48671;48.922;2.346;2023-02-13T12:26:39;103202.06;;;16.50;47.33
62600;BME280;48671;48.922;2.346;2023-02-13T12:29:38;103205.22;;;16.64;44.49
62600;BME280;48671;48.922;2.346;2023-02-13T12:32:20;103192.91;;;16.68;45.50
62600;BME280;48671;48.922;2.346;2023-02-13T12:38:18;103191.72;;;16.79;45.87
62600;BME280;48671;48.922;2.346;2023-02-13T12:43:32;103189.84;;;16.47;45.57
62600;BME280;48671;48.922;2.346;2023-02-13T12:57:51;103190.47;;;14.32;48.23
62600;BME280;48671;48.922;2.346;2023-02-13T13:03:03;103163.88;;;13.99;49.50
62600;BME280;48671;48.922;2.346;2023-02-13T13:05:59;103169.19;;;13.96;50.26
62600;BME280;48671;48.922;2.346;2023-02-13T13:08:54;103159.81;;;13.78;49.64
62600;BME280;48671;48.922;2.346;2023-02-13T13:19:34;103153.53;;;13.93;50.12
62600;BME280;48671;48.922;2.346;2023-02-13T13:24:57;103141.00;;;15.19;49.25
62600;BME280;48671;48.922;2.346;2023-02-13T13:27:38;103143.19;;;15.84;48.46
62600;BME280;48671;48.922;2.346;2023-02-13T13:30:20;103127.72;;;16.46;47.35
62600;BME280;48671;48.922;2.346;2023-02-13T13:33:13;103136.97;;;16.95;45.57
62600;BME280;48671;48.922;2.346;2023-02-13T13:35:44;103130.66;;;17.02;44.61
62600;BME280;48671;48.922;2.346;2023-02-13T13:38:29;103134.50;;;17.22;44.55
62600;BME280;48671;48.922;2.346;2023-02-13T13:44:04;103131.53;;;17.34;42.73
62600;BME280;48671;48.922;2.346;2023-02-13T13:49:33;103122.63;;;17.68;41.23
62600;BME280;48671;48.922;2.346;2023-02-13T13:52:19;103120.81;;;17.70;41.98
62600;BME280;48671;48.922;2.346;2023-02-13T13:54:45;103122.63;;;17.97;42.54
62600;BME280;48671;48.922;2.346;2023-02-13T13:57:25;103121.78;;;18.23;41.83
62600;BME280;48671;48.922;2.346;2023-02-13T13:59:56;103120.06;;;18.49;41.64
62600;BME280;48671;48.922;2.346;2023-02-13T14:07:35;103109.97;;;18.62;38.41
62600;BME280;48671;48.922;2.346;2023-02-13T14:10:00;103110.50;;;18.71;41.01
62600;BME280;48671;48.922;2.346;2023-02-13T14:14:58;103092.41;;;18.87;40.86
62600;BME280;48671;48.922;2.346;2023-02-13T14:20:21;103114.59;;;19.05;38.10
62600;BME280;48671;48.922;2.346;2023-02-13T14:22:47;103115.25;;;19.12;39.90
62600;BME280;48671;48.922;2.346;2023-02-13T14:25:24;103109.09;;;19.35;40.51
62600;BME280;48671;48.922;2.346;2023-02-13T14:28:01;103106.53;;;19.57;37.64
62600;BME280;48671;48.922;2.346;2023-02-13T14:30:31;103112.53;;;19.60;39.56
62600;BME280;48671;48.922;2.346;2023-02-13T14:33:22;103106.19;;;19.88;38.98
62600;BME280;48671;48.922;2.346;2023-02-13T14:35:59;103099.25;;;20.07;39.04
62600;BME280;48671;48.922;2.346;2023-02-13T14:38:26;103106.31;;;20.07;38.56
62600;BME280;48671;48.922;2.346;2023-02-13T14:40:52;103098.25;;;20.10;38.81
62600;BME280;48671;48.922;2.346;2023-02-13T14:48:23;103107.19;;;19.85;37.86
62600;BME280;48671;48.922;2.346;2023-02-13T14:50:53;103095.69;;;19.86;38.23
62600;BME280;48671;48.922;2.346;2023-02-13T14:53:22;103096.09;;;19.98;36.81
62600;BME280;48671;48.922;2.346;2023-02-13T14:55:55;103102.06;;;19.81;37.82
62600;BME280;48671;48.922;2.346;2023-02-13T14:58:31;103096.88;;;19.79;37.67
62600;BME280;48671;48.922;2.346;2023-02-13T15:01:15;103098.94;;;19.93;37.58
62600;BME280;48671;48.922;2.346;2023-02-13T15:03:48;103085.50;;;19.99;38.25
62600;BME280;48671;48.922;2.346;2023-02-13T15:06:30;103086.56;;;19.95;34.70
62600;BME280;48671;48.922;2.346;2023-02-13T15:09:01;103090.41;;;19.64;37.26
62600;BME280;48671;48.922;2.346;2023-02-13T15:11:41;103092.91;;;19.68;38.19
62600;BME280;48671;48.922;2.346;2023-02-13T15:14:23;103094.75;;;19.87;37.76
62600;BME280;48671;48.922;2.346;2023-02-13T15:17:26;103100.44;;;19.78;36.83
62600;BME280;48671;48.922;2.346;2023-02-13T15:20:02;103106.72;;;19.52;37.36
62600;BME280;48671;48.922;2.346;2023-02-13T15:22:34;103105.44;;;19.39;37.07
62600;BME280;48671;48.922;2.346;2023-02-13T15:25:00;103101.41;;;19.05;37.49
62600;BME280;48671;48.922;2.346;2023-02-13T15:27:29;103093.22;;;18.63;38.44
62600;BME280;48671;48.922;2.346;2023-02-13T15:32:32;103107.50;;;18.31;39.43
62600;BME280;48671;48.922;2.346;2023-02-13T15:34:58;103113.31;;;18.14;39.13
62600;BME280;48671;48.922;2.346;2023-02-13T15:37:27;103114.13;;;17.88;39.78
62600;BME280;48671;48.922;2.346;2023-02-13T15:39:53;103111.41;;;17.61;39.65
62600;BME280;48671;48.922;2.346;2023-02-13T15:42:18;103105.38;;;17.28;40.34